createdAt,value
2023-05-03T00:01:01.488Z,15.57
2023-05-03T00:03:52.586Z,22.40
2023-05-03T00:06:43.981Z,15.38
2023-05-03T00:09:33.395Z,16.75
2023-05-03T00:12:20.861Z,23.42
2023-05-03T00:15:09.780Z,16.10
2023-05-03T00:17:57.842Z,17.85
2023-05-03T00:20:45.532Z,20.83
2023-05-03T00:23:32.984Z,17.77
2023-05-03T00:26:21.512Z,17.05
2023-05-03T00:29:08.971Z,19.23
2023-05-03T00:31:56.495Z,18.55
2023-05-03T00:34:44.334Z,18.58
2023-05-03T00:37:32.610Z,16.40
2023-05-03T00:40:20.307Z,19.15
2023-05-03T00:43:07.867Z,15.13
2023-05-03T00:46:04.631Z,21.00
2023-05-03T00:49:00.473Z,21.42
2023-05-03T00:51:48.796Z,16.42
2023-05-03T00:54:37.585Z,15.10
2023-05-03T00:57:27.468Z,20.85
2023-05-03T01:00:15.625Z,15.85
2023-05-03T01:03:03.179Z,21.30
2023-05-03T01:06:20.781Z,20.98
2023-05-03T01:09:17.461Z,20.67
2023-05-03T01:12:17.379Z,20.10
2023-05-03T01:15:35.040Z,19.20
2023-05-03T01:18:31.153Z,13.68
2023-05-03T01:21:19.142Z,16.85
2023-05-03T01:24:13.702Z,17.67
2023-05-03T01:27:01.147Z,17.23
2023-05-03T01:29:48.637Z,19.42
2023-05-03T01:33:13.109Z,13.07
2023-05-03T01:36:18.819Z,17.42
2023-05-03T01:39:14.613Z,15.98
2023-05-03T01:42:03.914Z,16.05
2023-05-03T01:44:54.802Z,18.02
2023-05-03T01:47:42.518Z,15.82
2023-05-03T01:50:30.111Z,16.77
2023-05-03T01:53:17.691Z,17.95
2023-05-03T01:56:06.155Z,16.00
2023-05-03T01:58:53.767Z,16.65
2023-05-03T02:01:41.609Z,21.23
2023-05-03T02:04:30.459Z,21.88
2023-05-03T02:07:18.119Z,21.50
2023-05-03T02:10:06.708Z,24.63
2023-05-03T02:12:54.271Z,21.38
2023-05-03T02:15:41.800Z,17.92
2023-05-03T02:18:31.523Z,19.85
2023-05-03T02:21:19.075Z,14.00
2023-05-03T02:24:06.851Z,15.55
2023-05-03T02:26:54.431Z,18.00
2023-05-03T02:29:42.006Z,17.13
2023-05-03T02:32:29.542Z,17.73
2023-05-03T02:35:17.118Z,16.25
2023-05-03T02:38:04.748Z,19.30
2023-05-03T02:40:52.317Z,14.77
2023-05-03T02:43:39.714Z,14.73
2023-05-03T02:46:27.331Z,17.73
2023-05-03T02:49:14.869Z,19.40
2023-05-03T02:52:02.340Z,20.05
2023-05-03T02:54:50.571Z,29.65
2023-05-03T02:57:39.050Z,21.38
2023-05-03T03:00:28.059Z,17.65
2023-05-03T03:03:15.583Z,18.00
2023-05-03T03:06:03.355Z,16.27
2023-05-03T03:08:50.870Z,18.48
2023-05-03T03:11:38.485Z,22.13
2023-05-03T03:14:25.941Z,19.05
2023-05-03T03:17:13.641Z,15.27
2023-05-03T03:20:06.243Z,17.65
2023-05-03T03:22:53.840Z,19.67
2023-05-03T03:25:42.439Z,22.15
2023-05-03T03:28:29.900Z,24.90
2023-05-03T03:31:18.461Z,17.15
2023-05-03T03:34:06.095Z,20.52
2023-05-03T03:36:53.673Z,20.20
2023-05-03T03:39:41.162Z,20.52
2023-05-03T03:42:28.686Z,17.95
2023-05-03T03:45:16.482Z,25.90
2023-05-03T03:48:04.162Z,23.83
2023-05-03T03:50:52.673Z,21.25
2023-05-03T03:53:40.186Z,18.55
2023-05-03T03:56:28.018Z,21.77
2023-05-03T03:59:15.627Z,19.02
2023-05-03T04:02:06.330Z,27.33
2023-05-03T04:04:53.853Z,22.48
2023-05-03T04:07:41.422Z,19.55
2023-05-03T04:10:28.980Z,19.67
2023-05-03T04:13:16.495Z,18.50
2023-05-03T04:16:05.086Z,19.27
2023-05-03T04:18:52.775Z,19.92
2023-05-03T04:21:40.287Z,21.65
2023-05-03T04:24:30.701Z,18.95
2023-05-03T04:27:18.866Z,23.65
2023-05-03T04:30:07.782Z,21.70
2023-05-03T04:32:55.635Z,21.92
2023-05-03T04:35:44.302Z,15.27
2023-05-03T04:38:32.517Z,20.90
2023-05-03T04:41:20.746Z,17.20
2023-05-03T04:44:08.361Z,18.58
2023-05-03T04:46:56.635Z,18.05
2023-05-03T04:49:44.320Z,14.18
2023-05-03T04:52:31.906Z,18.40
2023-05-03T04:55:19.571Z,21.30
2023-05-03T04:58:09.469Z,18.45
2023-05-03T05:00:57.588Z,20.55
2023-05-03T05:03:45.496Z,17.95
2023-05-03T05:06:35.419Z,15.75
2023-05-03T05:09:25.958Z,17.50
2023-05-03T05:12:13.578Z,22.58
2023-05-03T05:15:01.089Z,15.65
2023-05-03T05:17:49.124Z,15.98
2023-05-03T05:20:36.793Z,12.85
2023-05-03T05:23:24.257Z,14.90
2023-05-03T05:26:11.752Z,17.00
2023-05-03T05:28:59.260Z,14.48
2023-05-03T05:31:49.157Z,11.63
2023-05-03T05:34:45.130Z,11.98
2023-05-03T05:37:33.586Z,12.88
2023-05-03T05:40:21.379Z,9.82
2023-05-03T05:43:09.653Z,14.80
2023-05-03T05:46:02.935Z,13.32
2023-05-03T05:48:52.531Z,15.10
2023-05-03T05:51:40.065Z,11.70
2023-05-03T05:54:28.691Z,9.65
2023-05-03T05:57:18.473Z,11.80
2023-05-03T06:00:14.663Z,10.02
2023-05-03T06:03:02.430Z,10.70
2023-05-03T06:05:50.018Z,13.63
2023-05-03T06:08:37.664Z,11.10
2023-05-03T06:11:46.731Z,9.90
2023-05-03T06:14:34.388Z,10.77
2023-05-03T06:17:23.637Z,8.20
2023-05-03T06:20:14.202Z,11.45
2023-05-03T06:23:01.999Z,10.07
2023-05-03T06:25:52.061Z,10.80
2023-05-03T06:28:39.864Z,9.80
2023-05-03T06:31:27.765Z,12.48
2023-05-03T06:34:22.063Z,8.38
2023-05-03T06:39:57.269Z,9.48
2023-05-03T06:42:44.953Z,8.02
2023-05-03T06:45:32.559Z,9.60
2023-05-03T06:48:21.567Z,11.10
2023-05-03T06:51:12.815Z,7.43
2023-05-03T06:54:06.846Z,10.90
2023-05-03T06:56:54.980Z,9.35
2023-05-03T06:59:42.786Z,10.27
2023-05-03T07:02:30.879Z,11.35
2023-05-03T07:05:19.335Z,8.95
2023-05-03T07:08:07.645Z,10.45
2023-05-03T07:10:55.581Z,9.88
2023-05-03T07:13:43.434Z,10.85
2023-05-03T07:16:31.206Z,9.13
2023-05-03T07:19:19.175Z,9.88
2023-05-03T07:22:14.391Z,8.73
2023-05-03T07:25:02.239Z,11.95
2023-05-03T07:27:50.690Z,8.50
2023-05-03T07:30:38.487Z,12.35
2023-05-03T07:33:28.813Z,7.93
2023-05-03T07:36:16.681Z,9.68
2023-05-03T07:39:06.088Z,7.38
2023-05-03T07:41:53.582Z,12.82
2023-05-03T07:44:42.314Z,6.78
2023-05-03T07:47:30.144Z,10.00
2023-05-03T07:50:18.020Z,8.68
2023-05-03T07:53:05.871Z,7.75
2023-05-03T07:55:58.953Z,9.45
2023-05-03T07:58:50.970Z,7.65
2023-05-03T08:01:45.089Z,8.48
2023-05-03T08:04:34.635Z,8.63
2023-05-03T08:07:23.844Z,10.80
2023-05-03T08:10:11.850Z,9.23
2023-05-03T08:13:05.932Z,8.85
2023-05-03T08:18:44.481Z,9.88
2023-05-03T08:21:48.465Z,14.05
2023-05-03T08:24:36.179Z,7.88
2023-05-03T08:27:28.886Z,9.00
2023-05-03T08:30:26.897Z,8.20
2023-05-03T08:33:15.972Z,8.43
2023-05-03T08:36:10.114Z,9.05
2023-05-03T08:41:51.271Z,7.63
2023-05-03T08:44:49.142Z,9.40
2023-05-03T08:47:39.659Z,8.35
2023-05-03T08:50:28.549Z,9.40
2023-05-03T08:53:17.645Z,9.45
2023-05-03T08:56:12.598Z,9.48
2023-05-03T08:59:08.164Z,8.82
2023-05-03T09:01:58.266Z,9.88
2023-05-03T09:04:46.365Z,8.18
2023-05-03T09:07:36.745Z,11.30
2023-05-03T09:10:26.101Z,11.20
2023-05-03T09:13:16.730Z,9.02
2023-05-03T09:16:05.555Z,9.98
2023-05-03T09:19:00.277Z,8.85
2023-05-03T09:21:48.437Z,12.60
2023-05-03T09:24:37.928Z,9.90
2023-05-03T09:27:27.822Z,8.68
2023-05-03T09:30:19.589Z,8.85
2023-05-03T09:33:11.518Z,8.68
2023-05-03T09:36:05.368Z,7.68
2023-05-03T09:38:57.902Z,7.28
2023-05-03T09:41:48.704Z,9.02
2023-05-03T09:44:52.182Z,8.00
2023-05-03T09:47:54.210Z,7.60
2023-05-03T09:50:51.835Z,8.65
2023-05-03T09:53:42.683Z,10.80
2023-05-03T09:56:31.244Z,12.65
2023-05-03T09:59:19.145Z,10.95
2023-05-03T10:02:08.538Z,7.35
2023-05-03T10:04:57.500Z,8.38
2023-05-03T10:07:51.091Z,7.00
2023-05-03T10:10:45.743Z,8.55
2023-05-03T10:13:36.590Z,8.02
2023-05-03T10:16:31.910Z,7.40
2023-05-03T10:19:27.793Z,10.25
2023-05-03T10:22:17.799Z,6.40
2023-05-03T10:25:09.000Z,9.15
2023-05-03T10:28:10.651Z,12.90
2023-05-03T10:31:00.988Z,8.60
2023-05-03T10:33:52.768Z,8.82
2023-05-03T10:36:50.234Z,22.45
2023-05-03T10:39:46.745Z,9.55
2023-05-03T10:42:40.382Z,7.13
2023-05-03T10:45:31.832Z,8.13
2023-05-03T10:48:21.007Z,9.70
2023-05-03T10:51:37.216Z,9.80
2023-05-03T10:54:27.764Z,11.32
2023-05-03T10:57:17.630Z,7.10
2023-05-03T11:00:13.008Z,6.72
2023-05-03T11:03:19.466Z,10.32
2023-05-03T11:06:10.093Z,10.07
2023-05-03T11:09:00.929Z,8.98
2023-05-03T11:11:54.471Z,6.90
2023-05-03T11:14:43.595Z,7.63
2023-05-03T11:17:34.142Z,5.32
2023-05-03T11:20:24.932Z,6.57
2023-05-03T11:23:15.618Z,7.10
2023-05-03T11:26:08.049Z,6.68
2023-05-03T11:28:58.731Z,10.82
2023-05-03T11:31:49.053Z,7.55
2023-05-03T11:34:40.645Z,7.30
2023-05-03T11:37:36.835Z,7.95
2023-05-03T11:40:28.675Z,9.93
2023-05-03T11:43:18.777Z,7.82
2023-05-03T11:46:10.312Z,8.45
2023-05-03T11:49:01.013Z,7.50
2023-05-03T11:51:55.302Z,11.32
2023-05-03T11:54:53.907Z,8.50
2023-05-03T11:57:44.918Z,5.07
2023-05-03T12:00:36.768Z,7.53
2023-05-03T12:03:33.670Z,7.55
2023-05-03T12:06:26.275Z,7.18
2023-05-03T12:09:19.007Z,8.27
2023-05-03T12:12:11.214Z,6.97
2023-05-03T12:15:08.022Z,7.35
2023-05-03T12:18:04.828Z,7.88
2023-05-03T12:24:01.242Z,6.82
2023-05-03T12:26:55.025Z,7.60
2023-05-03T12:29:51.666Z,6.10
2023-05-03T12:32:44.210Z,7.43
2023-05-03T12:35:41.048Z,5.55
2023-05-03T12:38:37.499Z,7.80
2023-05-03T12:44:29.175Z,7.28
2023-05-03T12:47:28.404Z,5.75
2023-05-03T12:50:24.999Z,6.28
2023-05-03T12:53:19.285Z,6.18
2023-05-03T12:56:13.376Z,5.43
2023-05-03T12:59:34.195Z,5.68
2023-05-03T13:08:17.909Z,5.70
2023-05-03T13:11:10.812Z,5.68
2023-05-03T13:14:02.560Z,6.93
2023-05-03T13:17:03.072Z,4.40
2023-05-03T13:19:53.986Z,5.28
2023-05-03T13:22:52.889Z,6.05
2023-05-03T13:25:44.298Z,8.27
2023-05-03T13:28:32.933Z,6.57
2023-05-03T13:31:34.532Z,7.85
2023-05-03T13:34:24.752Z,5.95
2023-05-03T13:37:18.389Z,7.82
2023-05-03T13:40:10.121Z,9.40
2023-05-03T13:43:01.183Z,5.93
2023-05-03T13:45:53.955Z,5.60
2023-05-03T13:48:44.323Z,5.00
2023-05-03T13:51:35.418Z,4.13
2023-05-03T13:54:25.711Z,6.03
2023-05-03T13:57:18.925Z,5.13
2023-05-03T14:00:14.144Z,6.75
2023-05-03T14:03:07.637Z,4.78
2023-05-03T14:08:56.839Z,8.68
2023-05-03T14:11:50.838Z,5.03
2023-05-03T14:14:44.579Z,7.65
2023-05-03T14:20:25.175Z,9.02
2023-05-03T14:23:15.156Z,7.20
2023-05-03T14:26:07.377Z,4.40
2023-05-03T14:28:59.593Z,7.05
2023-05-03T14:31:52.244Z,6.90
2023-05-03T14:34:44.530Z,5.10
2023-05-03T14:37:38.231Z,7.43
2023-05-03T14:40:30.151Z,5.47
2023-05-03T14:43:27.489Z,4.85
2023-05-03T14:46:26.962Z,7.63
2023-05-03T14:49:43.173Z,4.00
2023-05-03T14:52:53.027Z,4.57
2023-05-03T14:55:46.947Z,5.55
2023-05-03T15:01:48.097Z,4.80
2023-05-03T15:04:41.817Z,5.72
2023-05-03T15:07:37.051Z,5.95
2023-05-03T15:10:55.010Z,4.88
2023-05-03T15:13:49.219Z,7.28
2023-05-03T15:20:38.012Z,4.22
2023-05-03T15:23:36.219Z,6.85
2023-05-03T15:30:24.239Z,3.58
2023-05-03T15:36:50.907Z,4.85
2023-05-03T15:39:49.173Z,5.27
2023-05-03T15:45:58.973Z,4.80
2023-05-03T15:48:58.260Z,5.90
2023-05-03T15:51:52.439Z,7.07
2023-05-03T15:54:47.447Z,4.82
2023-05-03T15:58:08.992Z,5.40
2023-05-03T16:01:14.797Z,5.43
2023-05-03T16:04:16.485Z,3.40
2023-05-03T16:07:12.872Z,4.28
2023-05-03T16:10:03.590Z,46.45
2023-05-03T16:13:04.440Z,4.78
2023-05-03T16:16:13.417Z,4.93
2023-05-03T16:19:21.293Z,3.72
2023-05-03T16:22:18.365Z,3.00
2023-05-03T16:25:14.805Z,4.30
2023-05-03T16:28:06.629Z,5.65
2023-05-03T16:31:06.150Z,4.80
2023-05-03T16:34:01.179Z,6.57
2023-05-03T16:37:00.611Z,7.13
2023-05-03T16:39:53.257Z,6.40
2023-05-03T16:42:48.559Z,4.35
2023-05-03T16:45:46.410Z,4.72
2023-05-03T16:48:53.952Z,5.88
2023-05-03T16:51:43.344Z,6.90
2023-05-03T16:54:41.079Z,3.10
2023-05-03T16:57:34.950Z,3.35
2023-05-03T17:03:14.460Z,2.65
2023-05-03T17:06:05.292Z,3.13
2023-05-03T17:08:54.966Z,3.85
2023-05-03T17:11:42.774Z,3.30
2023-05-03T17:14:31.104Z,4.32
2023-05-03T17:17:29.541Z,2.80
2023-05-03T17:20:21.543Z,3.00
2023-05-03T17:23:12.726Z,4.50
2023-05-03T17:26:04.678Z,5.60
2023-05-03T17:29:09.279Z,5.30
2023-05-03T17:33:04.957Z,6.18
2023-05-03T17:35:26.858Z,2.05
2023-05-03T17:38:24.935Z,6.03
2023-05-03T17:42:07.994Z,5.00
2023-05-03T17:44:55.814Z,10.75
2023-05-03T17:47:46.712Z,12.63
2023-05-03T17:50:35.318Z,10.95
2023-05-03T17:53:33.423Z,4.88
2023-05-03T17:56:21.513Z,2.65
2023-05-03T17:59:10.032Z,11.65
2023-05-03T18:01:57.947Z,6.43
2023-05-03T18:04:45.861Z,15.07
2023-05-03T18:07:36.977Z,16.38
2023-05-03T18:10:27.831Z,12.38
2023-05-03T18:13:23.556Z,8.90
2023-05-03T18:16:11.808Z,17.48
2023-05-03T18:19:08.151Z,25.50
2023-05-03T18:21:58.338Z,18.88
2023-05-03T18:24:46.134Z,10.70
2023-05-03T18:27:38.143Z,10.90
2023-05-03T18:30:28.369Z,5.57
2023-05-03T18:33:19.166Z,21.23
2023-05-03T18:36:14.039Z,10.13
2023-05-03T18:39:01.627Z,6.18
2023-05-03T18:41:56.699Z,11.45
2023-05-03T18:44:51.832Z,5.10
2023-05-03T18:47:39.745Z,7.90
2023-05-03T18:50:27.600Z,6.78
2023-05-03T18:53:20.437Z,12.35
2023-05-03T18:56:12.349Z,7.15
2023-05-03T18:59:03.240Z,7.50
2023-05-03T19:01:50.989Z,4.28
2023-05-03T19:04:38.546Z,7.35
2023-05-03T19:07:26.194Z,7.68
2023-05-03T19:10:25.255Z,3.90
2023-05-03T19:13:14.782Z,5.63
2023-05-03T19:16:03.722Z,7.22
2023-05-03T19:18:51.827Z,9.48
2023-05-03T19:21:42.620Z,13.48
2023-05-03T19:24:30.251Z,9.32
2023-05-03T19:27:21.251Z,17.77
2023-05-03T19:30:10.385Z,5.20
2023-05-03T19:32:59.054Z,9.57
2023-05-03T19:35:46.806Z,9.05
2023-05-03T19:38:38.457Z,9.15
2023-05-03T19:41:26.243Z,8.68
2023-05-03T19:44:14.063Z,6.07
2023-05-03T19:47:01.565Z,5.65
2023-05-03T19:49:49.289Z,3.30
2023-05-03T19:52:40.483Z,4.20
2023-05-03T19:55:28.121Z,4.32
2023-05-03T19:58:15.790Z,3.63
2023-05-03T20:01:07.156Z,3.78
2023-05-03T20:03:55.318Z,4.88
2023-05-03T20:06:43.069Z,6.55
2023-05-03T20:09:30.900Z,4.22
2023-05-03T20:12:18.522Z,6.15
2023-05-03T20:15:07.252Z,4.47
2023-05-03T20:17:54.994Z,5.20
2023-05-03T20:20:42.659Z,4.40
2023-05-03T20:23:30.555Z,6.95
2023-05-03T20:26:19.046Z,4.78
2023-05-03T20:29:06.545Z,5.18
2023-05-03T20:31:54.081Z,7.35
2023-05-03T20:34:42.665Z,6.70
2023-05-03T20:37:30.315Z,5.75
2023-05-03T20:40:17.837Z,6.22
2023-05-03T20:43:05.367Z,3.80
2023-05-03T20:45:53.690Z,6.85
2023-05-03T20:48:41.172Z,3.47
2023-05-03T20:51:29.340Z,5.50
2023-05-03T20:54:17.031Z,3.67
2023-05-03T20:57:05.016Z,6.55
2023-05-03T20:59:52.458Z,5.82
2023-05-03T21:02:40.411Z,5.47
2023-05-03T21:05:30.918Z,8.30
2023-05-03T21:08:18.611Z,12.77
2023-05-03T21:11:06.960Z,4.95
2023-05-03T21:13:54.603Z,7.55
2023-05-03T21:16:42.439Z,10.13
2023-05-03T21:19:30.060Z,6.60
2023-05-03T21:22:18.076Z,5.07
2023-05-03T21:25:09.165Z,5.00
2023-05-03T21:27:57.201Z,9.77
2023-05-03T21:30:48.376Z,5.65
2023-05-03T21:33:35.854Z,5.78
2023-05-03T21:36:23.372Z,7.38
2023-05-03T21:39:11.028Z,4.72
2023-05-03T21:41:58.800Z,7.65
2023-05-03T21:44:49.457Z,10.23
2023-05-03T21:47:37.095Z,4.50
2023-05-03T21:50:25.073Z,7.35
2023-05-03T21:53:12.970Z,7.13
2023-05-03T21:56:01.347Z,7.25
2023-05-03T21:58:49.326Z,7.45
2023-05-03T22:01:37.019Z,7.13
2023-05-03T22:04:24.788Z,6.30
2023-05-03T22:07:12.404Z,8.35
2023-05-03T22:09:59.973Z,7.68
2023-05-03T22:12:48.388Z,7.35
2023-05-03T22:15:36.130Z,4.47
2023-05-03T22:18:25.945Z,12.00
2023-05-03T22:21:13.660Z,3.65
2023-05-03T22:24:01.942Z,6.05
2023-05-03T22:26:49.968Z,6.47
2023-05-03T22:29:38.053Z,6.75
2023-05-03T22:32:25.528Z,7.80
2023-05-03T22:35:14.761Z,7.90
2023-05-03T22:38:02.852Z,5.72
2023-05-03T22:40:50.488Z,5.88
2023-05-03T22:43:38.188Z,4.90
2023-05-03T22:46:26.061Z,9.18
2023-05-03T22:49:13.811Z,6.40
2023-05-03T22:52:04.080Z,7.35
2023-05-03T22:54:56.267Z,4.97
2023-05-03T22:57:43.947Z,7.85
2023-05-03T23:00:31.529Z,8.77
2023-05-03T23:03:19.571Z,7.38
2023-05-03T23:06:07.537Z,7.65
2023-05-03T23:08:55.130Z,6.10
2023-05-03T23:11:43.364Z,4.90
2023-05-03T23:14:31.168Z,4.72
2023-05-03T23:17:18.649Z,8.77
2023-05-03T23:20:06.904Z,5.30
2023-05-03T23:22:54.991Z,7.97
2023-05-03T23:25:42.848Z,9.63
2023-05-03T23:28:30.721Z,8.77
2023-05-03T23:31:18.548Z,6.72
2023-05-03T23:34:07.056Z,5.10
2023-05-03T23:36:54.469Z,6.85
2023-05-03T23:39:45.455Z,5.40
2023-05-03T23:42:33.116Z,8.27
2023-05-03T23:45:20.844Z,6.70
2023-05-03T23:48:08.535Z,6.50
2023-05-03T23:50:56.096Z,8.60
2023-05-03T23:53:43.631Z,6.88
2023-05-03T23:56:31.062Z,6.70
2023-05-03T23:59:18.536Z,6.68
